»·PEaware :: N333ZS KSBD-KEMT

N333ZS :: KSBD-KEMT

FLIGHT INFORMATION

Flight Status: Arrived
Operator: Privately registered:
United States
More flights under this callsign
Pilot: Judd H. (29974)
Aircraft: CESSNA 182 SKYLANE
(C182)
More flights by this aircraft type
Origin: KSBD San Bernardino Intl
United States
Destination: KEMT El Monte
United States
More flights between these airports :: More routes between these airports
Route: +
File this flight plan on PilotEdge
Remarks:
Altitude:
(Current/Filed)
4,200ft
Speed:
(Current/Filed)
120kts
Departed: 07-Aug-20 01:49 PM
Arrived: 07-Aug-20 02:35 PM
Distance/Time
Traveled:
40nm/0:46
Distance/Time
To Go:
Arrived

Flight Plot

Page will automatically refresh every two minutes.


Map Options




Map Legend


Flown Route
Filed Route
Departure Airport
Arrival Airport
Navaid (VOR, NDB)
Fix

Horizontal Profiles

Position Reports

Time Latitude Longitude Heading Altitude Ground
Speed
07-Aug-20 13:40 34.101427 -117.225089 180 1122ft 0kts
07-Aug-20 13:41 34.101417 -117.225089 178 1122ft 0kts
07-Aug-20 13:42 34.101415 -117.225089 178 1122ft 0kts
07-Aug-20 13:43 34.101413 -117.225089 178 1122ft 0kts
07-Aug-20 13:44 34.101412 -117.225088 178 1122ft 0kts
07-Aug-20 13:45 34.100729 -117.225146 205 1122ft 10kts
07-Aug-20 13:46 34.100756 -117.222992 71 1122ft 17kts
07-Aug-20 13:47 34.100797 -117.219831 165 1122ft 0kts
07-Aug-20 13:48 34.099798 -117.219795 246 1122ft 2kts
07-Aug-20 13:48 34.095845 -117.233206 250 1345ft 99kts
07-Aug-20 13:50 34.092092 -117.276161 280 2497ft 115kts
07-Aug-20 13:51 34.096013 -117.314808 273 3378ft 128kts
07-Aug-20 13:51 34.097447 -117.352460 270 3761ft 136kts
07-Aug-20 13:52 34.097632 -117.397867 272 4246ft 124kts
07-Aug-20 13:54 34.075244 -117.391398 106 4013ft 107kts
07-Aug-20 13:54 34.072131 -117.359218 101 3988ft 112kts
07-Aug-20 13:55 34.066702 -117.320106 92 3577ft 117kts
07-Aug-20 13:56 34.068911 -117.280816 86 3298ft 108kts
07-Aug-20 13:57 34.074970 -117.249466 71 2461ft 90kts
07-Aug-20 13:58 34.083374 -117.221904 67 1934ft 95kts
07-Aug-20 13:59 34.099270 -117.193731 321 2078ft 96kts
07-Aug-20 14:00 34.098987 -117.222547 250 1184ft 75kts
07-Aug-20 14:01 34.096213 -117.236277 329 1122ft 11kts
07-Aug-20 14:02 34.098371 -117.231022 75 1122ft 20kts
07-Aug-20 14:03 34.100615 -117.226439 41 1122ft 16kts
07-Aug-20 14:04 34.101200 -117.225505 78 1122ft 0kts
07-Aug-20 14:05 34.101200 -117.225503 78 1122ft 0kts
07-Aug-20 14:06 34.101200 -117.225501 78 1122ft 0kts
07-Aug-20 14:07 34.101200 -117.225500 78 1122ft 0kts
07-Aug-20 14:08 34.101337 -117.220957 70 1122ft 16kts
07-Aug-20 14:09 34.100740 -117.219784 165 1122ft 0kts
07-Aug-20 14:10 34.097929 -117.226049 250 1170ft 84kts
07-Aug-20 14:11 34.090480 -117.260455 263 1937ft 124kts
07-Aug-20 14:12 34.090423 -117.303259 271 2537ft 129kts
07-Aug-20 14:13 34.114199 -117.320672 40 3089ft 135kts
07-Aug-20 14:14 34.100698 -117.293195 200 3680ft 130kts
07-Aug-20 14:15 34.088869 -117.328913 272 4330ft 125kts
07-Aug-20 14:16 34.091139 -117.374380 273 4455ft 144kts
07-Aug-20 14:17 34.093608 -117.421771 273 4449ft 139kts
07-Aug-20 14:18 34.096838 -117.467926 276 4470ft 137kts
07-Aug-20 14:19 34.101143 -117.513931 278 4472ft 138kts
07-Aug-20 14:20 34.109725 -117.558692 267 4474ft 138kts
07-Aug-20 14:21 34.106450 -117.604881 261 4473ft 138kts
07-Aug-20 14:22 34.096806 -117.649886 252 4476ft 139kts
07-Aug-20 14:23 34.086904 -117.694638 267 4453ft 140kts
07-Aug-20 14:24 34.088344 -117.741193 292 3964ft 141kts
07-Aug-20 14:25 34.104131 -117.782986 290 3433ft 125kts
07-Aug-20 14:26 34.116517 -117.820880 291 2937ft 119kts
07-Aug-20 14:27 34.119650 -117.860047 272 2521ft 112kts
07-Aug-20 14:28 34.120906 -117.894563 272 2510ft 96kts
07-Aug-20 14:29 34.122128 -117.926169 272 2522ft 92kts
07-Aug-20 14:30 34.122728 -117.956645 269 2393ft 100kts
07-Aug-20 14:31 34.124626 -117.991314 279 1723ft 89kts
07-Aug-20 14:32 34.120970 -118.013970 216 1339ft 94kts
07-Aug-20 14:33 34.096838 -118.028716 207 560ft 88kts
07-Aug-20 14:34 34.083181 -118.036418 134 299ft 5kts
07-Aug-20 14:35 34.082227 -118.035811 31 299ft 0kts

Navigation Log

Ident Type
Flight plan parsing failed, navigation log unavailable